Isola Celeste — 9HOD9 — position and weather

sailwx.info

Track history (hours):
 
Tides and Currents Weather Stations Pressure Air Temp Water Temp Dewpoint Dewpoint Depression Visibility Wind Speed Wind Dir Waves Ship Positions

Isola Celeste

Last reported at 2017-Sep-19 05:05 UTC. Time now 2017-Sep-26 22:05 UTC.
Position N 34°54' W 024°38'.

Length 182 m; draft 11.9 m.

Type: Tanker. MMSI: 249263000.

Date/timePositionNaut miles runAvg speedWind from/ knotsBaromVisibWave heightAir tempDewpointWater temp
2017-Sep-19 05:05N 34°54' W 024°38'  
2017-Sep-16 14:06N 35°49' W 008°27'13812.5
2017-Sep-16 03:01N 35°58' W 005°36'1 8.9
2017-Sep-16 02:54N 35°58' W 005°35'3 8.5
2017-Sep-16 02:30N 35°59' W 005°31'4 7.0
2017-Sep-16 02:00N 36°01' W 005°27'3 5.8
2017-Sep-16 01:30N 36°02' W 005°24'2 4.3
2017-Sep-16 01:00N 36°04' W 005°23'2 4.3
2017-Sep-16 00:30N 36°07' W 005°23'1 0.3
2017-Sep-15 20:36N 36°07' W 005°22'0 0.2
2017-Sep-15 20:30N 36°07' W 005°22'0 0.1
2017-Sep-15 19:48N 36°07' W 005°22'0 0.1
2017-Sep-15 19:00N 36°07' W 005°22'1 2.4
2017-Sep-15 18:29N 36°06' W 005°22'1 0.8
2017-Sep-15 17:24N 36°05' W 005°21'2 5.0
2017-Sep-15 16:56N 36°05' W 005°19'3 6.1
2017-Sep-15 16:30N 36°04' W 005°15'17611.3
2017-Sep-15 00:51N 36°30' W 001°39'711.4
2017-Sep-15 00:15N 36°31' W 001°30'411.5
2017-Sep-14 23:54N 36°32' W 001°26'511.6
2017-Sep-14 23:30N 36°33' W 001°20'2512.7
2017-Sep-14 21:32N 36°37' W 000°49'013.2
2017-Sep-14 21:30N 36°37' W 000°49'613.0
2017-Sep-14 21:00N 36°38' W 000°41'713.1
2017-Sep-14 20:30N 36°39' W 000°33'613.0
2017-Sep-14 20:00N 36°40' W 000°25'612.8
2017-Sep-14 19:30N 36°41' W 000°17'912.7
2017-Sep-14 18:48N 36°42' W 000°06'412.7
2017-Sep-14 18:30N 36°43' W 000°01'612.9
2017-Sep-14 18:00N 36°43' E 000°07'613.0
2017-Sep-14 17:30N 36°45' E 000°15'713.0
2017-Sep-14 17:00N 36°46' E 000°23'613.0
2017-Sep-14 16:30N 36°47' E 000°31'713.0
2017-Sep-14 16:00N 36°48' E 000°39'613.0
2017-Sep-14 15:30N 36°49' E 000°47'612.8
2017-Sep-14 15:00N 36°50' E 000°54'712.8
2017-Sep-14 14:30N 36°51' E 001°03'713.0
2017-Sep-14 14:00N 36°52' E 001°11'613.2
2017-Sep-14 13:30N 36°53' E 001°18'713.2
2017-Sep-14 13:00N 36°54' E 001°27'713.2
2017-Sep-14 12:30N 36°55' E 001°35'713.2
2017-Sep-14 12:00N 36°56' E 001°43'713.2
2017-Sep-14 11:30N 36°57' E 001°51'713.4
2017-Sep-14 10:59N 36°58' E 001°60'613.3
2017-Sep-14 10:30N 36°59' E 002°08'713.1
2017-Sep-14 10:00N 36°59' E 002°16'613.0
2017-Sep-14 09:30N 37°00' E 002°24'612.8
2017-Sep-14 09:00N 37°01' E 002°32'612.8
2017-Sep-14 08:30N 37°02' E 002°40'612.7
2017-Sep-14 08:00N 37°03' E 002°48'612.7
2017-Sep-14 07:30N 37°04' E 002°56'612.8
2017-Sep-14 07:00N 37°06' E 003°03'612.6
2017-Sep-14 06:30N 37°06' E 003°11'612.7
2017-Sep-14 06:00N 37°07' E 003°19'612.8
2017-Sep-14 05:30N 37°08' E 003°27'612.9
2017-Sep-14 05:00N 37°08' E 003°35'613.1
2017-Sep-14 04:30N 37°09' E 003°43'713.1
2017-Sep-14 04:00N 37°10' E 003°51'713.1
2017-Sep-14 03:30N 37°11' E 003°60'713.1
2017-Sep-14 02:59N 37°11' E 004°08'913.2
2017-Sep-14 02:19N 37°13' E 004°19'32413.0
2017-Sep-13 01:27N 37°30' E 011°06'613.3
2017-Sep-13 01:00N 37°27' E 011°13'713.3
2017-Sep-13 00:30N 37°24' E 011°20'713.6
2017-Sep-13 00:00N 37°20' E 011°28'713.9
2017-Sep-12 23:30N 37°16' E 011°35'714.1
2017-Sep-12 23:00N 37°13' E 011°43'714.0
2017-Sep-12 22:30N 37°10' E 011°50'713.1
2017-Sep-12 22:00N 37°06' E 011°58'713.7
2017-Sep-12 21:30N 37°03' E 012°05'1313.6
2017-Sep-12 20:34N 36°59' E 012°20'113.4
2017-Sep-12 20:30N 36°59' E 012°21'713.4
2017-Sep-12 20:00N 36°57' E 012°29'713.5
2017-Sep-12 19:30N 36°54' E 012°37'713.7
2017-Sep-12 19:00N 36°51' E 012°45'813.8
2017-Sep-12 18:24N 36°48' E 012°55'613.7
2017-Sep-12 17:58N 36°46' E 013°01'813.5
2017-Sep-12 17:23N 36°44' E 013°11'513.4
2017-Sep-12 17:00N 36°42' E 013°17'713.3
2017-Sep-12 16:30N 36°40' E 013°25'613.0
2017-Sep-12 16:00N 36°37' E 013°32'712.5
2017-Sep-12 15:29N 36°35' E 013°40'612.1
2017-Sep-12 15:00N 36°33' E 013°46'611.7
2017-Sep-12 14:30N 36°31' E 013°53'611.7
2017-Sep-12 14:00N 36°28' E 013°60'611.7
2017-Sep-12 13:30N 36°26' E 014°07'611.7
2017-Sep-12 13:00N 36°25' E 014°14'611.9
2017-Sep-12 12:30N 36°23' E 014°20'612.1
2017-Sep-12 12:00N 36°21' E 014°28'612.1
2017-Sep-12 11:30N 36°20' E 014°35'612.2
2017-Sep-12 11:00N 36°20' E 014°43'712.1
2017-Sep-12 10:25N 36°19' E 014°52'36312.1
2017-Sep-11 04:21N 36°02' E 022°21'1813.0
2017-Sep-11 02:59N 36°01' E 022°43'6011.8
2017-Sep-10 21:52N 36°40' E 023°40'913.0
2017-Sep-10 21:10N 36°48' E 023°46'6212.8
2017-Sep-10 16:20N 37°39' E 024°29'199 6.1
2017-Sep-09 07:40N 40°26' E 026°50'0 0.0
2017-Sep-09 07:19N 40°26' E 026°50'  
Track history (hours):
 
Tides and Currents Weather Stations Pressure Air Temp Water Temp Dewpoint Dewpoint Depression Visibility Wind Speed Wind Dir Waves Ship Positions

Isola Celeste

Last reported at 2017-Sep-19 05:05 UTC. Time now 2017-Sep-26 22:05 UTC.
Position N 34°54' W 024°38'.

Length 182 m; draft 11.9 m.

Type: Tanker. MMSI: 249263000.

Date/timePositionNaut miles runAvg speedWind from/ knotsBaromVisibWave heightAir tempDewpointWater temp
2017-Sep-19 05:05N 34°54' W 024°38'  
2017-Sep-16 14:06N 35°49' W 008°27'13812.5
2017-Sep-16 03:01N 35°58' W 005°36'1 8.9
2017-Sep-16 02:54N 35°58' W 005°35'3 8.5
2017-Sep-16 02:30N 35°59' W 005°31'4 7.0
2017-Sep-16 02:00N 36°01' W 005°27'3 5.8
2017-Sep-16 01:30N 36°02' W 005°24'2 4.3
2017-Sep-16 01:00N 36°04' W 005°23'2 4.3
2017-Sep-16 00:30N 36°07' W 005°23'1 0.3
2017-Sep-15 20:36N 36°07' W 005°22'0 0.2
2017-Sep-15 20:30N 36°07' W 005°22'0 0.1
2017-Sep-15 19:48N 36°07' W 005°22'0 0.1
2017-Sep-15 19:00N 36°07' W 005°22'1 2.4
2017-Sep-15 18:29N 36°06' W 005°22'1 0.8
2017-Sep-15 17:24N 36°05' W 005°21'2 5.0
2017-Sep-15 16:56N 36°05' W 005°19'3 6.1
2017-Sep-15 16:30N 36°04' W 005°15'17611.3
2017-Sep-15 00:51N 36°30' W 001°39'711.4
2017-Sep-15 00:15N 36°31' W 001°30'411.5
2017-Sep-14 23:54N 36°32' W 001°26'511.6
2017-Sep-14 23:30N 36°33' W 001°20'2512.7
2017-Sep-14 21:32N 36°37' W 000°49'013.2
2017-Sep-14 21:30N 36°37' W 000°49'613.0
2017-Sep-14 21:00N 36°38' W 000°41'713.1
2017-Sep-14 20:30N 36°39' W 000°33'613.0
2017-Sep-14 20:00N 36°40' W 000°25'612.8
2017-Sep-14 19:30N 36°41' W 000°17'912.7
2017-Sep-14 18:48N 36°42' W 000°06'412.7
2017-Sep-14 18:30N 36°43' W 000°01'612.9
2017-Sep-14 18:00N 36°43' E 000°07'613.0
2017-Sep-14 17:30N 36°45' E 000°15'713.0
2017-Sep-14 17:00N 36°46' E 000°23'613.0
2017-Sep-14 16:30N 36°47' E 000°31'713.0
2017-Sep-14 16:00N 36°48' E 000°39'613.0
2017-Sep-14 15:30N 36°49' E 000°47'612.8
2017-Sep-14 15:00N 36°50' E 000°54'712.8
2017-Sep-14 14:30N 36°51' E 001°03'713.0
2017-Sep-14 14:00N 36°52' E 001°11'613.2
2017-Sep-14 13:30N 36°53' E 001°18'713.2
2017-Sep-14 13:00N 36°54' E 001°27'713.2
2017-Sep-14 12:30N 36°55' E 001°35'713.2
2017-Sep-14 12:00N 36°56' E 001°43'713.2
2017-Sep-14 11:30N 36°57' E 001°51'713.4
2017-Sep-14 10:59N 36°58' E 001°60'613.3
2017-Sep-14 10:30N 36°59' E 002°08'713.1
2017-Sep-14 10:00N 36°59' E 002°16'613.0
2017-Sep-14 09:30N 37°00' E 002°24'612.8
2017-Sep-14 09:00N 37°01' E 002°32'612.8
2017-Sep-14 08:30N 37°02' E 002°40'612.7
2017-Sep-14 08:00N 37°03' E 002°48'612.7
2017-Sep-14 07:30N 37°04' E 002°56'612.8
2017-Sep-14 07:00N 37°06' E 003°03'612.6
2017-Sep-14 06:30N 37°06' E 003°11'612.7
2017-Sep-14 06:00N 37°07' E 003°19'612.8
2017-Sep-14 05:30N 37°08' E 003°27'612.9
2017-Sep-14 05:00N 37°08' E 003°35'613.1
2017-Sep-14 04:30N 37°09' E 003°43'713.1
2017-Sep-14 04:00N 37°10' E 003°51'713.1
2017-Sep-14 03:30N 37°11' E 003°60'713.1
2017-Sep-14 02:59N 37°11' E 004°08'913.2
2017-Sep-14 02:19N 37°13' E 004°19'32413.0
2017-Sep-13 01:27N 37°30' E 011°06'613.3
2017-Sep-13 01:00N 37°27' E 011°13'713.3
2017-Sep-13 00:30N 37°24' E 011°20'713.6
2017-Sep-13 00:00N 37°20' E 011°28'713.9
2017-Sep-12 23:30N 37°16' E 011°35'714.1
2017-Sep-12 23:00N 37°13' E 011°43'714.0
2017-Sep-12 22:30N 37°10' E 011°50'713.1
2017-Sep-12 22:00N 37°06' E 011°58'713.7
2017-Sep-12 21:30N 37°03' E 012°05'1313.6
2017-Sep-12 20:34N 36°59' E 012°20'113.4
2017-Sep-12 20:30N 36°59' E 012°21'713.4
2017-Sep-12 20:00N 36°57' E 012°29'713.5
2017-Sep-12 19:30N 36°54' E 012°37'713.7
2017-Sep-12 19:00N 36°51' E 012°45'813.8
2017-Sep-12 18:24N 36°48' E 012°55'613.7
2017-Sep-12 17:58N 36°46' E 013°01'813.5
2017-Sep-12 17:23N 36°44' E 013°11'513.4
2017-Sep-12 17:00N 36°42' E 013°17'713.3
2017-Sep-12 16:30N 36°40' E 013°25'613.0
2017-Sep-12 16:00N 36°37' E 013°32'712.5
2017-Sep-12 15:29N 36°35' E 013°40'612.1
2017-Sep-12 15:00N 36°33' E 013°46'611.7
2017-Sep-12 14:30N 36°31' E 013°53'611.7
2017-Sep-12 14:00N 36°28' E 013°60'611.7
2017-Sep-12 13:30N 36°26' E 014°07'611.7
2017-Sep-12 13:00N 36°25' E 014°14'611.9
2017-Sep-12 12:30N 36°23' E 014°20'612.1
2017-Sep-12 12:00N 36°21' E 014°28'612.1
2017-Sep-12 11:30N 36°20' E 014°35'612.2
2017-Sep-12 11:00N 36°20' E 014°43'712.1
2017-Sep-12 10:25N 36°19' E 014°52'36312.1
2017-Sep-11 04:21N 36°02' E 022°21'1813.0
2017-Sep-11 02:59N 36°01' E 022°43'6011.8
2017-Sep-10 21:52N 36°40' E 023°40'913.0
2017-Sep-10 21:10N 36°48' E 023°46'6212.8
2017-Sep-10 16:20N 37°39' E 024°29'199 6.1
2017-Sep-09 07:40N 40°26' E 026°50'0 0.0
2017-Sep-09 07:19N 40°26' E 026°50'  

Dump ship's entire track history